createdAt,value
2018-11-27T00:00:13.649Z,21.02
2018-11-27T00:05:16.822Z,21.03
2018-11-27T00:10:20.001Z,20.98
2018-11-27T00:15:23.225Z,21.02
2018-11-27T00:20:26.417Z,20.98
2018-11-27T00:25:29.642Z,20.96
2018-11-27T00:30:32.814Z,20.94
2018-11-27T00:35:36.039Z,20.95
2018-11-27T00:40:39.249Z,20.89
2018-11-27T00:45:42.458Z,20.96
2018-11-27T00:50:45.641Z,20.93
2018-11-27T00:55:48.822Z,20.91
2018-11-27T01:00:51.989Z,20.92
2018-11-27T01:05:55.204Z,20.92
2018-11-27T01:10:58.434Z,20.95
2018-11-27T01:16:01.614Z,20.95
2018-11-27T01:21:05.139Z,20.93
2018-11-27T01:26:08.310Z,20.92
2018-11-27T01:31:11.546Z,20.91
2018-11-27T01:36:14.789Z,20.90
2018-11-27T01:41:17.971Z,20.91
2018-11-27T01:46:21.174Z,20.90
2018-11-27T01:51:24.366Z,20.92
2018-11-27T01:56:27.574Z,20.86
2018-11-27T02:01:30.737Z,20.86
2018-11-27T02:06:33.906Z,20.84
2018-11-27T02:11:37.113Z,20.86
2018-11-27T02:16:40.332Z,20.87
2018-11-27T02:21:43.526Z,20.86
2018-11-27T02:26:46.732Z,20.86
2018-11-27T02:31:49.937Z,20.81
2018-11-27T02:36:53.134Z,20.83
2018-11-27T02:41:56.344Z,20.84
2018-11-27T02:46:59.567Z,20.83
2018-11-27T02:52:02.765Z,20.82
2018-11-27T02:57:05.996Z,20.83
2018-11-27T03:02:09.181Z,20.82
2018-11-27T03:07:12.408Z,20.80
2018-11-27T03:12:15.600Z,20.81
2018-11-27T03:17:18.820Z,20.83
2018-11-27T03:22:22.008Z,20.80
2018-11-27T03:27:25.229Z,20.83
2018-11-27T03:32:28.429Z,20.79
2018-11-27T03:37:31.588Z,20.78
2018-11-27T03:42:34.804Z,20.80
2018-11-27T03:47:38.073Z,20.80
2018-11-27T03:52:41.294Z,20.81
2018-11-27T03:57:44.482Z,20.76
2018-11-27T04:02:52.917Z,20.79
2018-11-27T04:07:56.138Z,20.79
2018-11-27T04:12:59.351Z,20.78
2018-11-27T04:18:02.518Z,20.78
2018-11-27T04:23:05.767Z,20.76
2018-11-27T04:28:08.970Z,20.76
2018-11-27T04:33:12.174Z,20.77
2018-11-27T04:38:15.379Z,20.74
2018-11-27T04:43:18.582Z,20.78
2018-11-27T04:48:21.780Z,20.78
2018-11-27T04:53:25.003Z,20.80
2018-11-27T04:58:28.214Z,20.80
2018-11-27T05:03:31.418Z,20.77
2018-11-27T05:08:34.632Z,20.74
2018-11-27T05:13:37.849Z,20.73
2018-11-27T05:18:41.032Z,20.72
2018-11-27T05:23:44.270Z,20.70
2018-11-27T05:28:47.478Z,20.71
2018-11-27T05:33:50.767Z,20.68
2018-11-27T05:38:53.982Z,20.68
2018-11-27T05:43:57.213Z,20.71
2018-11-27T05:49:00.397Z,20.70
2018-11-27T05:54:03.566Z,20.68
2018-11-27T05:59:06.834Z,20.70
2018-11-27T06:04:10.038Z,20.66
2018-11-27T06:09:13.238Z,20.63
2018-11-27T06:14:16.450Z,20.69
2018-11-27T06:19:19.651Z,20.64
2018-11-27T06:24:22.858Z,20.64
2018-11-27T06:29:26.066Z,20.62
2018-11-27T06:34:29.269Z,20.63
2018-11-27T06:39:32.490Z,20.66
2018-11-27T06:44:35.689Z,20.62
2018-11-27T06:49:38.899Z,20.62
2018-11-27T06:54:42.110Z,20.63
2018-11-27T06:59:45.318Z,20.62
2018-11-27T07:04:48.530Z,20.62
2018-11-27T07:09:51.738Z,20.58
2018-11-27T07:14:54.946Z,20.57
2018-11-27T07:19:58.151Z,20.62
2018-11-27T07:25:01.387Z,20.58
2018-11-27T07:30:07.561Z,20.56
2018-11-27T07:35:12.710Z,20.58
2018-11-27T07:40:17.922Z,20.57
2018-11-27T07:45:22.087Z,20.56
2018-11-27T07:50:25.297Z,17.63
2018-11-27T07:55:28.497Z,16.81
2018-11-27T08:00:31.721Z,16.35
2018-11-27T08:05:37.989Z,16.25
2018-11-27T08:10:41.722Z,17.95
2018-11-27T08:15:44.930Z,18.75
2018-11-27T08:20:48.107Z,19.10
2018-11-27T08:25:51.337Z,19.28
2018-11-27T08:30:54.554Z,19.46
2018-11-27T08:35:57.758Z,19.59
2018-11-27T08:41:00.953Z,19.70
2018-11-27T08:46:04.170Z,19.77
2018-11-27T08:51:07.377Z,19.83
2018-11-27T08:56:10.602Z,19.89
2018-11-27T09:01:13.803Z,19.95
2018-11-27T09:06:17.020Z,19.99
2018-11-27T09:11:20.221Z,20.02
2018-11-27T09:16:23.425Z,20.05
2018-11-27T09:21:26.626Z,20.09
2018-11-27T09:26:29.850Z,20.12
2018-11-27T09:31:33.049Z,20.14
2018-11-27T09:36:36.254Z,20.19
2018-11-27T09:41:39.474Z,20.23
2018-11-27T09:46:42.681Z,20.24
2018-11-27T09:51:45.894Z,20.24
2018-11-27T09:56:49.090Z,20.19
2018-11-27T10:01:52.310Z,20.17
2018-11-27T10:06:55.514Z,20.18
2018-11-27T10:11:58.725Z,20.19
2018-11-27T10:17:01.944Z,20.19
2018-11-27T10:22:05.195Z,20.21
2018-11-27T10:27:08.371Z,20.22
2018-11-27T10:32:11.549Z,20.29
2018-11-27T10:37:14.796Z,20.32
2018-11-27T10:42:17.966Z,20.38
2018-11-27T10:47:21.209Z,20.43
2018-11-27T10:52:24.400Z,20.45
2018-11-27T10:57:27.590Z,20.48
2018-11-27T11:02:34.049Z,20.51
2018-11-27T11:07:37.286Z,20.50
2018-11-27T11:12:40.494Z,20.48
2018-11-27T11:17:43.694Z,20.54
2018-11-27T11:22:46.927Z,20.47
2018-11-27T11:27:51.758Z,20.55
2018-11-27T11:32:54.973Z,20.60
2018-11-27T11:37:58.178Z,20.62
2018-11-27T11:43:01.383Z,20.56
2018-11-27T11:48:04.566Z,20.56
2018-11-27T11:53:12.205Z,20.63
2018-11-27T11:58:15.409Z,20.62
2018-11-27T12:03:18.586Z,20.66
2018-11-27T12:08:21.845Z,20.63
2018-11-27T12:13:25.044Z,20.63
2018-11-27T12:18:28.262Z,20.64
2018-11-27T12:23:31.458Z,20.68
2018-11-27T12:28:34.673Z,20.68
2018-11-27T12:33:37.867Z,20.64
2018-11-27T12:38:41.077Z,20.62
2018-11-27T12:43:44.302Z,20.67
2018-11-27T12:48:47.498Z,20.70
2018-11-27T12:53:50.714Z,20.72
2018-11-27T12:58:53.918Z,20.69
2018-11-27T13:03:57.162Z,20.72
2018-11-27T13:09:00.353Z,20.71
2018-11-27T13:14:03.554Z,20.71
2018-11-27T13:19:06.745Z,20.71
2018-11-27T13:24:09.971Z,20.71
2018-11-27T13:29:13.192Z,20.73
2018-11-27T13:34:16.598Z,20.75
2018-11-27T13:39:31.578Z,20.71
2018-11-27T13:44:34.759Z,20.66
2018-11-27T13:49:38.003Z,19.41
2018-11-27T13:54:41.226Z,18.76
2018-11-27T13:59:44.406Z,17.96
2018-11-27T14:04:47.609Z,18.94
2018-11-27T14:09:50.826Z,19.55
2018-11-27T14:14:54.040Z,19.91
2018-11-27T14:19:57.234Z,20.06
2018-11-27T14:25:00.454Z,20.18
2018-11-27T14:30:08.733Z,20.24
2018-11-27T14:35:12.610Z,20.29
2018-11-27T14:40:16.895Z,20.33
2018-11-27T14:45:21.537Z,20.36
2018-11-27T14:50:24.745Z,20.36
2018-11-27T14:55:30.961Z,20.37
2018-11-27T15:00:34.184Z,20.39
2018-11-27T15:05:38.778Z,20.40
2018-11-27T15:10:42.030Z,20.39
2018-11-27T15:15:45.230Z,20.39
2018-11-27T15:20:48.434Z,20.49
2018-11-27T15:25:51.678Z,20.49
2018-11-27T15:30:54.863Z,20.55
2018-11-27T15:35:58.070Z,20.57
2018-11-27T15:41:01.299Z,20.64
2018-11-27T15:46:04.510Z,20.66
2018-11-27T15:51:07.704Z,20.71
2018-11-27T15:56:10.866Z,20.79
2018-11-27T16:01:14.021Z,20.84
2018-11-27T16:06:17.223Z,20.93
2018-11-27T16:11:20.427Z,21.01
2018-11-27T16:16:23.659Z,20.99
2018-11-27T16:21:26.848Z,20.99
2018-11-27T16:26:30.054Z,20.97
2018-11-27T16:31:33.271Z,20.94
2018-11-27T16:36:36.430Z,20.96
2018-11-27T16:41:39.670Z,21.02
2018-11-27T16:46:42.874Z,21.09
2018-11-27T16:51:46.103Z,21.10
2018-11-27T16:56:49.297Z,21.10
2018-11-27T17:01:52.505Z,21.05
2018-11-27T17:06:55.713Z,21.03
2018-11-27T17:11:58.930Z,21.09
2018-11-27T17:17:02.092Z,21.16
2018-11-27T17:22:07.019Z,21.22
2018-11-27T17:27:08.949Z,21.24
2018-11-27T17:32:12.163Z,21.24
2018-11-27T18:05:23.754Z,21.39
2018-11-27T18:10:26.935Z,21.40
2018-11-27T18:15:30.150Z,21.39
2018-11-27T18:20:33.342Z,21.45
2018-11-27T18:25:36.527Z,21.49
2018-11-27T18:30:39.782Z,21.43
2018-11-27T18:35:42.942Z,21.45
2018-11-27T18:40:46.183Z,21.43
2018-11-27T18:45:49.401Z,21.42
2018-11-27T18:50:52.567Z,21.41
2018-11-27T18:55:55.985Z,21.44
2018-11-27T19:00:59.198Z,21.62
2018-11-27T19:06:02.358Z,21.65
2018-11-27T19:11:06.026Z,21.61
2018-11-27T19:50:03.583Z,21.84
2018-11-27T19:55:08.690Z,21.75
2018-11-27T20:00:28.106Z,21.71
2018-11-27T20:05:31.359Z,21.72
2018-11-27T20:10:34.556Z,21.72
2018-11-27T20:15:37.729Z,21.72
2018-11-27T20:20:40.958Z,21.70
2018-11-27T20:25:44.155Z,21.62
2018-11-27T20:30:47.381Z,21.57
2018-11-27T20:35:50.585Z,21.60
2018-11-27T20:40:53.815Z,21.55
2018-11-27T20:45:59.719Z,21.54
2018-11-27T20:51:04.887Z,21.54
2018-11-27T20:56:08.563Z,21.49
2018-11-27T21:01:11.757Z,21.52
2018-11-27T21:06:14.972Z,21.45
2018-11-27T21:11:18.173Z,21.43
2018-11-27T21:16:21.381Z,21.40
2018-11-27T21:21:24.595Z,21.36
2018-11-27T21:26:27.829Z,21.33
2018-11-27T21:31:31.015Z,21.30
2018-11-27T21:36:34.186Z,21.26
2018-11-27T21:41:37.425Z,21.25
2018-11-27T21:46:40.599Z,21.22
2018-11-27T21:51:43.785Z,21.20
2018-11-27T21:56:47.061Z,21.16
2018-11-27T22:01:50.254Z,21.17
2018-11-27T22:06:53.461Z,21.15
2018-11-27T22:11:56.673Z,21.15
2018-11-27T22:16:59.887Z,21.11
2018-11-27T22:22:03.094Z,21.11
2018-11-27T22:27:06.510Z,21.10
2018-11-27T22:32:09.685Z,21.09
2018-11-27T22:37:13.142Z,21.06
2018-11-27T22:42:16.439Z,21.05
2018-11-27T22:47:19.663Z,21.06
2018-11-27T22:52:22.858Z,21.03
2018-11-27T22:57:26.061Z,21.04
2018-11-27T23:02:29.281Z,21.02
2018-11-27T23:07:37.886Z,20.99
2018-11-27T23:12:41.122Z,21.01
2018-11-27T23:17:44.311Z,20.98
2018-11-27T23:22:47.474Z,21.00
2018-11-27T23:27:50.839Z,20.98
2018-11-27T23:32:54.054Z,20.95
2018-11-27T23:37:57.242Z,20.98
2018-11-27T23:43:00.974Z,20.97
2018-11-27T23:48:04.187Z,20.98
2018-11-27T23:53:07.917Z,20.95
2018-11-27T23:58:11.205Z,20.94
